Time;durP1;ratioP1;P1;durP2;ratioP2;P2;SDS_P1;SDS_P2;PMS_P1;PMS_P2;Temp;Humidity;BMP_temperature;BMP_pressure;BME280_temperature;BME280_humidity;BME280_pressure;Samples;Min_cycle;Max_cycle;Signal;HPM_P1;HPM_P2
2022/01/16 00:00:20;;;;;;;80.17;39.03;;;3.50;99.90;;;;;;5068863;23;20265;-92
2022/01/16 00:04:40;;;;;;;78.07;37.97;;;3.60;99.90;;;;;;5093657;23;20165;-93
2022/01/16 00:06:45;;;;;;;80.40;38.97;;;3.70;99.90;;;;;;5068928;23;20185;-94
2022/01/16 00:08:45;;;;;;;79.70;36.97;;;3.70;99.90;;;;;;5069258;23;20679;-92
2022/01/16 00:10:46;;;;;;;73.10;37.13;;;3.60;99.90;;;;;;5093465;23;20157;-93
2022/01/16 00:12:48;;;;;;;74.00;37.50;;;3.70;99.90;;;;;;5069162;23;20153;-93
2022/01/16 00:14:50;;;;;;;74.97;36.97;;;3.60;99.90;;;;;;5069038;23;20289;-91
2022/01/16 00:16:51;;;;;;;75.53;36.37;;;3.70;99.90;;;;;;5093291;23;20197;-91
2022/01/16 00:18:52;;;;;;;73.03;38.07;;;3.70;99.90;;;;;;5093719;23;20655;-92
2022/01/16 00:20:53;;;;;;;78.00;38.90;;;3.80;99.90;;;;;;5069287;23;20168;-92
2022/01/16 00:22:54;;;;;;;78.13;37.97;;;3.90;99.90;;;;;;5093392;23;20522;-92
2022/01/16 00:24:55;;;;;;;77.37;37.67;;;4.10;99.90;;;;;;5068923;23;20532;-93
2022/01/16 00:26:55;;;;;;;71.17;36.10;;;4.10;99.90;;;;;;5093478;23;20152;-92
2022/01/16 00:28:57;;;;;;;75.67;36.80;;;4.00;99.90;;;;;;5093432;23;20153;-91
2022/01/16 00:30:57;;;;;;;74.70;36.67;;;4.10;99.90;;;;;;5069076;23;20220;-92
2022/01/16 00:33:00;;;;;;;78.83;38.90;;;4.10;99.90;;;;;;5068950;23;20161;-92
2022/01/16 00:35:01;;;;;;;77.00;37.83;;;4.00;99.90;;;;;;5093650;23;20153;-92
2022/01/16 00:37:02;;;;;;;73.70;36.43;;;3.90;99.90;;;;;;5093444;23;20231;-93
2022/01/16 00:39:04;;;;;;;77.10;39.13;;;3.90;99.90;;;;;;5093751;23;20188;-93
2022/01/16 00:41:05;;;;;;;76.07;38.17;;;3.90;99.90;;;;;;5068849;23;20185;-92
2022/01/16 00:43:06;;;;;;;73.47;38.00;;;4.00;99.90;;;;;;5093298;23;20157;-92
2022/01/16 00:45:07;;;;;;;73.07;37.73;;;4.00;99.90;;;;;;5069055;23;20221;-91
2022/01/16 00:47:07;;;;;;;77.57;38.97;;;4.00;99.90;;;;;;5093476;23;20199;-91
2022/01/16 00:49:08;;;;;;;75.50;37.47;;;4.10;99.90;;;;;;5068887;23;20214;-92
2022/01/16 00:51:10;;;;;;;80.53;39.13;;;4.20;99.90;;;;;;5069334;23;20240;-91
2022/01/16 00:53:11;;;;;;;72.60;38.10;;;4.30;99.90;;;;;;5069047;23;20152;-91
2022/01/16 00:55:11;;;;;;;78.50;39.20;;;4.00;99.90;;;;;;5068773;23;20157;-92
2022/01/16 00:57:12;;;;;;;74.80;38.90;;;4.10;99.90;;;;;;5069073;23;20201;-92
2022/01/16 00:59:13;;;;;;;74.10;38.13;;;4.00;99.90;;;;;;5093182;23;20157;-93
2022/01/16 01:01:14;;;;;;;72.87;36.80;;;4.00;99.90;;;;;;5068950;23;20565;-92
2022/01/16 01:03:15;;;;;;;73.53;38.83;;;4.00;99.90;;;;;;5070223;23;20150;-92
2022/01/16 01:05:16;;;;;;;73.63;36.10;;;4.00;99.90;;;;;;5094779;23;20604;-93
2022/01/16 01:07:17;;;;;;;78.23;37.63;;;4.10;99.90;;;;;;5070388;23;20172;-93
2022/01/16 01:09:19;;;;;;;78.07;37.83;;;4.10;99.90;;;;;;5094809;23;20155;-93
2022/01/16 01:11:25;;;;;;;77.43;37.57;;;4.10;99.90;;;;;;5094725;23;20149;-92
2022/01/16 01:15:40;;;;;;;74.30;37.57;;;4.30;99.90;;;;;;5094572;23;20168;-91
2022/01/16 01:17:45;;;;;;;72.07;36.33;;;4.40;99.90;;;;;;5094378;23;20196;-94
2022/01/16 01:19:46;;;;;;;71.87;36.33;;;4.40;99.90;;;;;;5070177;23;20173;-91
2022/01/16 01:21:47;;;;;;;77.47;37.00;;;4.40;99.90;;;;;;5095829;23;20153;-93
2022/01/16 01:23:48;;;;;;;72.27;36.73;;;4.50;99.90;;;;;;5070418;23;20150;-91
2022/01/16 01:25:49;;;;;;;84.57;37.50;;;4.50;99.90;;;;;;5094780;23;20211;-92
2022/01/16 01:27:50;;;;;;;75.30;37.57;;;4.60;99.90;;;;;;5094972;23;20169;-91
2022/01/16 01:29:59;;;;;;;80.20;37.13;;;4.50;99.90;;;;;;5070556;23;20189;-93
2022/01/16 01:32:01;;;;;;;77.37;37.17;;;4.50;99.90;;;;;;5070237;23;20157;-93
2022/01/16 01:34:01;;;;;;;81.93;37.67;;;4.50;99.90;;;;;;5070470;23;20244;-93
2022/01/16 01:36:02;;;;;;;74.73;37.40;;;4.50;99.90;;;;;;5094952;23;20148;-92
2022/01/16 01:38:03;;;;;;;77.70;36.53;;;4.50;99.90;;;;;;5070421;23;20252;-94
2022/01/16 01:40:07;;;;;;;81.30;36.23;;;4.30;99.90;;;;;;5094775;23;20145;-91
2022/01/16 01:42:11;;;;;;;77.30;37.20;;;4.30;99.90;;;;;;5070176;23;20154;-91
2022/01/16 01:51:13;;;;;;;73.93;36.67;;;4.40;99.90;;;;;;5094600;23;20168;-93
2022/01/16 01:53:15;;;;;;;72.90;36.80;;;4.40;99.90;;;;;;5069965;23;20157;-92
2022/01/16 01:55:17;;;;;;;68.30;34.83;;;4.30;99.90;;;;;;5069914;23;20157;-92
2022/01/16 01:57:18;;;;;;;68.33;35.17;;;4.20;99.90;;;;;;5094209;23;20224;-91
2022/01/16 01:59:18;;;;;;;73.87;36.40;;;4.20;99.90;;;;;;5094615;23;20228;-92
2022/01/16 02:01:20;;;;;;;70.27;36.23;;;4.10;99.90;;;;;;5094331;23;20161;-92
2022/01/16 02:03:29;;;;;;;75.07;36.43;;;4.00;99.90;;;;;;5094156;23;20157;-93
2022/01/16 02:05:31;;;;;;;74.63;36.13;;;4.10;99.90;;;;;;5094182;23;20156;-91
2022/01/16 02:07:31;;;;;;;71.20;34.50;;;4.20;99.90;;;;;;5070026;23;20181;-92
2022/01/16 02:09:33;;;;;;;74.50;36.37;;;3.90;99.90;;;;;;5094240;23;20631;-92
2022/01/16 02:11:34;;;;;;;71.47;35.57;;;3.80;99.90;;;;;;5094030;23;20191;-92
2022/01/16 02:13:47;;;;;;;77.30;36.10;;;3.70;99.90;;;;;;5093463;23;20149;-92
2022/01/16 02:28:02;;;;;;;70.03;34.77;;;3.50;99.90;;;;;;5094252;23;20172;-91
2022/01/16 02:32:13;;;;;;;74.60;36.90;;;3.30;99.90;;;;;;5094694;23;20204;-91
2022/01/16 02:34:32;;;;;;;77.80;36.10;;;3.30;99.90;;;;;;5069890;23;20236;-92
2022/01/16 02:36:35;;;;;;;74.03;35.50;;;3.50;99.90;;;;;;5093765;23;20149;-92
2022/01/16 02:38:35;;;;;;;83.43;37.27;;;3.40;99.90;;;;;;5069699;23;20174;-92
2022/01/16 02:40:39;;;;;;;81.97;37.13;;;3.50;99.90;;;;;;5069940;23;20185;-92
2022/01/16 02:42:44;;;;;;;81.07;37.73;;;3.30;99.90;;;;;;5069674;23;20184;-93
2022/01/16 02:44:50;;;;;;;85.93;39.00;;;3.20;99.90;;;;;;5094121;23;20145;-94
2022/01/16 02:46:51;;;;;;;78.77;37.83;;;3.30;99.90;;;;;;5069703;23;20172;-92
2022/01/16 02:48:54;;;;;;;81.87;38.33;;;3.30;99.90;;;;;;5069714;23;20240;-92
2022/01/16 02:50:54;;;;;;;79.00;38.53;;;3.30;99.90;;;;;;5069849;23;20157;-92
2022/01/16 02:52:55;;;;;;;75.73;37.83;;;3.30;99.90;;;;;;5069575;23;20160;-91
2022/01/16 02:54:58;;;;;;;83.60;38.10;;;3.20;99.90;;;;;;5094001;23;20159;-92
2022/01/16 02:56:59;;;;;;;83.70;37.83;;;3.20;99.90;;;;;;5069403;23;20272;-93
2022/01/16 02:58:59;;;;;;;81.53;38.67;;;3.20;99.90;;;;;;5093938;23;20180;-91
2022/01/16 03:01:00;;;;;;;86.73;39.17;;;3.30;99.90;;;;;;5069494;23;20153;-91
2022/01/16 03:03:01;;;;;;;84.23;38.57;;;3.30;99.90;;;;;;5069828;23;20485;-91
2022/01/16 03:05:02;;;;;;;85.43;38.60;;;3.30;99.90;;;;;;5093759;23;20248;-92
2022/01/16 03:07:04;;;;;;;89.13;40.17;;;3.30;99.90;;;;;;5093735;23;20172;-92
2022/01/16 03:09:08;;;;;;;81.67;39.10;;;3.30;99.90;;;;;;5069979;23;20161;-93
2022/01/16 03:11:54;;;;;;;90.40;39.73;;;3.40;99.90;;;;;;5069329;23;20224;-93
2022/01/16 03:13:32;;;;;;;94.47;41.43;;;3.30;99.90;;;;;;5093623;23;20148;-93
2022/01/16 03:15:35;;;;;;;84.73;39.50;;;3.30;99.90;;;;;;5069152;23;20207;-92
2022/01/16 03:22:16;;;;;;;86.67;39.10;;;3.10;99.90;;;;;;5093679;23;20228;-92
2022/01/16 03:24:17;;;;;;;85.60;39.20;;;3.30;99.90;;;;;;5069419;23;20158;-93
2022/01/16 03:26:18;;;;;;;88.57;40.43;;;3.40;99.90;;;;;;5069645;23;20236;-92
2022/01/16 03:28:20;;;;;;;89.80;40.03;;;3.50;99.90;;;;;;5069498;23;20177;-93
2022/01/16 03:30:21;;;;;;;86.20;40.10;;;3.40;99.90;;;;;;5069377;23;20154;-91
2022/01/16 03:32:22;;;;;;;87.53;40.07;;;3.20;99.90;;;;;;5093929;23;20693;-92
2022/01/16 03:34:23;;;;;;;84.93;39.30;;;3.30;99.90;;;;;;5093650;23;20144;-93
2022/01/16 03:36:23;;;;;;;89.83;40.80;;;3.40;99.90;;;;;;5069624;23;20158;-91
2022/01/16 03:38:24;;;;;;;86.40;38.67;;;3.40;99.90;;;;;;5093532;23;20706;-92
2022/01/16 03:40:25;;;;;;;86.10;39.23;;;3.50;99.90;;;;;;5069205;23;20177;-93
2022/01/16 03:42:30;;;;;;;89.17;38.73;;;3.50;99.90;;;;;;5069342;23;20157;-93
2022/01/16 03:44:30;;;;;;;80.53;38.90;;;3.40;99.90;;;;;;5093432;23;20149;-92
2022/01/16 03:46:39;;;;;;;82.03;39.10;;;3.40;99.90;;;;;;5068621;23;20229;-92
2022/01/16 03:48:40;;;;;;;86.73;38.87;;;3.40;99.90;;;;;;5093249;23;20172;-92
2022/01/16 03:50:40;;;;;;;80.43;39.27;;;3.60;99.90;;;;;;5068955;23;20687;-91
2022/01/16 03:52:41;;;;;;;79.50;38.33;;;3.50;99.90;;;;;;5069052;23;20240;-91
2022/01/16 03:54:42;;;;;;;87.17;41.87;;;3.50;99.90;;;;;;5069054;23;20160;-93
2022/01/16 03:56:43;;;;;;;79.70;36.40;;;3.40;99.90;;;;;;5069052;23;20188;-91
2022/01/16 03:58:44;;;;;;;84.03;37.97;;;3.40;99.90;;;;;;5093480;23;20239;-92
2022/01/16 04:00:45;;;;;;;74.13;36.43;;;3.40;99.90;;;;;;5069138;23;20150;-92
2022/01/16 04:02:46;;;;;;;86.13;39.37;;;3.40;99.90;;;;;;5069139;23;20294;-91
2022/01/16 04:04:47;;;;;;;86.20;38.53;;;3.30;99.90;;;;;;5069419;23;20647;-91
2022/01/16 04:06:47;;;;;;;85.57;38.07;;;3.40;99.90;;;;;;5093682;23;20149;-91
2022/01/16 04:08:50;;;;;;;84.27;38.30;;;3.40;99.90;;;;;;5069098;23;20278;-92
2022/01/16 04:10:51;;;;;;;96.03;37.93;;;3.40;99.90;;;;;;5069120;23;20237;-93
2022/01/16 04:12:52;;;;;;;89.20;39.47;;;3.40;99.90;;;;;;5093653;23;20199;-91
2022/01/16 04:16:53;;;;;;;83.63;36.87;;;3.70;99.90;;;;;;5093268;23;20192;-91
2022/01/16 04:18:54;;;;;;;95.97;40.00;;;3.50;99.90;;;;;;5093355;23;20235;-92
2022/01/16 04:20:55;;;;;;;95.13;39.03;;;3.40;99.90;;;;;;5069139;23;20161;-93
2022/01/16 04:22:55;;;;;;;90.90;40.10;;;3.30;99.90;;;;;;5093477;23;20152;-91
2022/01/16 04:24:56;;;;;;;88.70;39.33;;;3.30;99.90;;;;;;5069257;23;20631;-91
2022/01/16 04:26:57;;;;;;;96.93;40.90;;;3.30;99.90;;;;;;5068842;23;20181;-93
2022/01/16 04:28:58;;;;;;;92.23;38.77;;;3.20;99.90;;;;;;5093147;23;20160;-91
2022/01/16 04:30:58;;;;;;;91.00;38.77;;;3.10;99.90;;;;;;5068894;23;20222;-91
2022/01/16 04:32:59;;;;;;;91.90;38.27;;;3.20;99.90;;;;;;5093369;23;20595;-92
2022/01/16 04:35:00;;;;;;;93.03;38.53;;;3.20;99.90;;;;;;5068976;23;20220;-92
2022/01/16 04:37:01;;;;;;;96.93;40.57;;;3.20;99.90;;;;;;5093556;23;20180;-92
2022/01/16 04:39:02;;;;;;;98.20;39.53;;;3.20;99.90;;;;;;5070811;23;20160;-92
2022/01/16 04:45:41;;;;;;;100.67;39.40;;;3.20;99.90;;;;;;5094847;23;20556;-92
2022/01/16 04:47:42;;;;;;;101.60;40.03;;;3.30;99.90;;;;;;5070558;23;20172;-92
2022/01/16 04:49:43;;;;;;;95.47;39.00;;;3.40;99.90;;;;;;5070537;23;20542;-92
2022/01/16 04:51:43;;;;;;;102.10;38.60;;;3.40;99.90;;;;;;5070667;23;20154;-91
2022/01/16 04:53:45;;;;;;;95.80;39.33;;;3.40;99.90;;;;;;5094782;23;20149;-93
2022/01/16 04:55:47;;;;;;;102.57;40.57;;;3.50;99.90;;;;;;5094923;23;20152;-92
2022/01/16 04:57:47;;;;;;;97.43;37.37;;;3.50;99.90;;;;;;5094556;23;20188;-92
2022/01/16 04:59:48;;;;;;;103.23;38.20;;;3.50;99.90;;;;;;5070454;23;20623;-93
2022/01/16 05:01:49;;;;;;;101.67;38.10;;;3.60;99.90;;;;;;5094787;23;20195;-93
2022/01/16 05:03:50;;;;;;;106.33;37.80;;;3.70;99.90;;;;;;5070294;23;20150;-92
2022/01/16 05:05:51;;;;;;;118.03;36.67;;;3.80;99.90;;;;;;5070499;23;20652;-93
2022/01/16 05:07:52;;;;;;;128.50;37.13;;;3.80;99.90;;;;;;5094567;23;20165;-93
2022/01/16 05:09:52;;;;;;;104.20;36.77;;;3.70;99.90;;;;;;5094910;23;20619;-92
2022/01/16 05:11:57;;;;;;;134.00;38.47;;;3.50;99.90;;;;;;5094994;23;20516;-92
2022/01/16 05:18:17;;;;;;;125.73;39.27;;;3.80;99.90;;;;;;5119595;23;20192;-93
2022/01/16 05:20:18;;;;;;;193.23;41.27;;;3.70;99.90;;;;;;5070767;23;20537;-93
2022/01/16 05:22:19;;;;;;;133.63;39.30;;;3.80;99.90;;;;;;5070582;23;20226;-92
2022/01/16 05:24:19;;;;;;;146.57;38.70;;;3.70;99.90;;;;;;5070562;23;20153;-93
2022/01/16 05:26:26;;;;;;;131.37;39.63;;;3.90;99.90;;;;;;5070388;23;20240;-93
2022/01/16 05:28:28;;;;;;;136.87;40.20;;;3.90;99.90;;;;;;5070341;23;20194;-93
2022/01/16 05:30:29;;;;;;;117.20;37.80;;;4.00;99.90;;;;;;5094707;23;20156;-91
2022/01/16 05:32:29;;;;;;;124.77;41.03;;;3.90;99.90;;;;;;5094492;23;20153;-92
2022/01/16 05:34:30;;;;;;;112.90;40.37;;;4.00;99.90;;;;;;5070156;23;20223;-92
2022/01/16 05:36:31;;;;;;;132.70;39.73;;;3.90;99.90;;;;;;5070176;23;20162;-93
2022/01/16 05:38:31;;;;;;;131.20;40.93;;;3.80;99.90;;;;;;5094549;23;20173;-92
2022/01/16 05:40:32;;;;;;;120.20;40.20;;;3.90;99.90;;;;;;5070073;23;20608;-91
2022/01/16 05:42:33;;;;;;;111.90;39.67;;;3.80;99.90;;;;;;5094641;23;20153;-93
2022/01/16 05:44:34;;;;;;;108.50;40.10;;;3.80;99.90;;;;;;5070197;23;20604;-91
2022/01/16 05:46:34;;;;;;;111.73;40.50;;;3.70;99.90;;;;;;5094283;23;20153;-92
2022/01/16 05:48:35;;;;;;;124.17;43.00;;;3.70;99.90;;;;;;5069808;23;20644;-92
2022/01/16 05:50:36;;;;;;;123.63;42.40;;;3.80;99.90;;;;;;5094158;23;20149;-93
2022/01/16 05:52:37;;;;;;;111.37;40.93;;;3.90;99.90;;;;;;5070287;23;20185;-92
2022/01/16 05:54:38;;;;;;;129.10;43.67;;;4.00;99.90;;;;;;5070378;23;20209;-92
2022/01/16 05:56:39;;;;;;;123.93;44.07;;;4.00;99.90;;;;;;5070026;23;20153;-92
2022/01/16 05:58:40;;;;;;;106.67;37.23;;;4.10;99.90;;;;;;5070281;23;20532;-92
2022/01/16 06:00:41;;;;;;;111.60;39.83;;;4.00;99.90;;;;;;5094107;23;20149;-93
2022/01/16 06:02:42;;;;;;;110.23;39.20;;;3.80;99.90;;;;;;5069879;23;20154;-93
2022/01/16 06:04:43;;;;;;;107.87;39.30;;;3.90;99.90;;;;;;5094477;23;20179;-93
2022/01/16 06:06:43;;;;;;;111.67;40.73;;;3.90;99.90;;;;;;5094327;23;20184;-93
2022/01/16 06:08:44;;;;;;;105.90;38.87;;;3.90;99.90;;;;;;5069991;23;20611;-92
2022/01/16 06:10:45;;;;;;;106.37;40.53;;;4.00;99.90;;;;;;5094347;23;20149;-93
2022/01/16 06:12:46;;;;;;;115.20;42.00;;;3.90;99.90;;;;;;5069896;23;20150;-92
2022/01/16 06:14:47;;;;;;;108.37;40.83;;;3.90;99.90;;;;;;5094420;23;20242;-91
2022/01/16 06:16:47;;;;;;;120.40;41.30;;;3.90;99.90;;;;;;5069608;23;20177;-93
2022/01/16 06:18:48;;;;;;;110.53;42.07;;;3.90;99.90;;;;;;5069865;23;20181;-92
2022/01/16 06:20:49;;;;;;;110.00;41.73;;;3.80;99.90;;;;;;5094836;23;20160;-93
2022/01/16 06:22:53;;;;;;;117.57;43.83;;;3.90;99.90;;;;;;5070144;23;20196;-93
2022/01/16 06:24:53;;;;;;;106.87;41.37;;;4.00;99.90;;;;;;5070354;23;20145;-91
2022/01/16 06:26:54;;;;;;;101.77;40.93;;;3.80;99.90;;;;;;5094247;23;20153;-92
2022/01/16 06:28:55;;;;;;;107.77;42.10;;;3.60;99.90;;;;;;5070019;23;20195;-92
2022/01/16 06:30:56;;;;;;;109.70;42.40;;;3.60;99.90;;;;;;5094221;23;20507;-92
2022/01/16 06:32:57;;;;;;;108.87;42.87;;;3.70;99.90;;;;;;5070004;23;20157;-92
2022/01/16 06:34:57;;;;;;;105.50;41.07;;;3.60;99.90;;;;;;5069899;23;20149;-91
2022/01/16 06:36:58;;;;;;;113.43;41.40;;;3.60;99.90;;;;;;5069893;23;20181;-92
2022/01/16 06:39:00;;;;;;;111.10;41.70;;;3.40;99.90;;;;;;5070003;23;20157;-92
2022/01/16 06:41:01;;;;;;;102.40;39.23;;;3.60;99.90;;;;;;5069994;23;20209;-91
2022/01/16 06:43:02;;;;;;;95.23;38.57;;;3.40;99.90;;;;;;5070089;23;20541;-91
2022/01/16 06:45:07;;;;;;;111.70;42.47;;;3.30;99.90;;;;;;5094426;23;20156;-94
2022/01/16 06:47:08;;;;;;;102.70;40.03;;;3.40;99.90;;;;;;5069766;23;20180;-92
2022/01/16 06:49:10;;;;;;;101.57;40.40;;;3.40;99.90;;;;;;5070066;23;20160;-92
2022/01/16 06:51:11;;;;;;;103.47;40.23;;;3.40;99.90;;;;;;5094370;23;20264;-93
2022/01/16 06:53:12;;;;;;;107.00;39.93;;;3.30;99.90;;;;;;5069449;23;20240;-93
2022/01/16 06:55:12;;;;;;;106.80;41.53;;;3.30;99.90;;;;;;5069036;23;20197;-93
2022/01/16 06:57:13;;;;;;;107.57;42.60;;;3.40;99.90;;;;;;5069602;23;20269;-93
2022/01/16 06:59:14;;;;;;;102.63;37.23;;;3.50;99.90;;;;;;5093878;23;20149;-92
2022/01/16 07:01:15;;;;;;;116.83;42.63;;;3.30;99.90;;;;;;5069692;23;20604;-92
2022/01/16 07:03:15;;;;;;;110.30;41.83;;;3.30;99.90;;;;;;5094110;23;20232;-91
2022/01/16 07:05:16;;;;;;;109.57;40.37;;;3.30;99.90;;;;;;5094263;23;20454;-91
2022/01/16 07:07:17;;;;;;;100.97;37.87;;;3.30;99.90;;;;;;5069490;23;20264;-92
2022/01/16 07:09:17;;;;;;;99.83;38.37;;;3.30;99.90;;;;;;5069268;23;20153;-94
2022/01/16 07:11:18;;;;;;;108.17;36.87;;;3.40;99.90;;;;;;5093884;23;20149;-93
2022/01/16 07:13:21;;;;;;;97.57;36.17;;;3.20;99.90;;;;;;5069399;23;20181;-92
2022/01/16 07:15:22;;;;;;;90.20;35.67;;;3.10;99.90;;;;;;5069113;23;20468;-92
2022/01/16 07:17:22;;;;;;;107.27;37.83;;;3.10;99.90;;;;;;5069397;23;20236;-93
2022/01/16 07:19:23;;;;;;;82.70;30.03;;;3.10;99.90;;;;;;5069087;23;20153;-93
2022/01/16 07:21:24;;;;;;;88.73;33.53;;;3.10;99.90;;;;;;5093606;23;20231;-92
2022/01/16 07:23:25;;;;;;;88.67;32.13;;;3.00;99.90;;;;;;5069190;23;20145;-92
2022/01/16 07:25:25;;;;;;;92.63;33.10;;;3.10;99.90;;;;;;5094098;23;20587;-92
2022/01/16 07:27:26;;;;;;;85.20;31.63;;;3.00;99.90;;;;;;5093677;23;20235;-93
2022/01/16 07:29:28;;;;;;;87.93;30.97;;;2.90;99.90;;;;;;5069248;23;20613;-94
2022/01/16 07:31:29;;;;;;;117.97;31.40;;;2.90;99.90;;;;;;5069258;23;20154;-92
2022/01/16 07:33:29;;;;;;;97.57;31.53;;;2.80;99.90;;;;;;5093794;23;20237;-92
2022/01/16 07:35:31;;;;;;;121.57;30.50;;;2.90;99.90;;;;;;5069589;23;20154;-93
2022/01/16 07:37:31;;;;;;;93.27;28.27;;;2.90;99.90;;;;;;5069345;23;20185;-91
2022/01/16 07:39:32;;;;;;;80.93;29.43;;;2.90;99.90;;;;;;5093564;23;20160;-92
2022/01/16 07:41:33;;;;;;;128.50;31.27;;;3.00;99.90;;;;;;5068937;23;20153;-93
2022/01/16 07:43:34;;;;;;;96.70;26.17;;;3.20;99.90;;;;;;5093519;23;20145;-93
2022/01/16 07:45:37;;;;;;;105.87;28.43;;;3.10;99.90;;;;;;5068752;23;20164;-92
2022/01/16 07:47:38;;;;;;;149.00;31.17;;;3.10;99.90;;;;;;5069197;23;20188;-92
2022/01/16 07:49:39;;;;;;;130.23;30.47;;;3.20;99.90;;;;;;5093696;23;20149;-91
2022/01/16 07:51:40;;;;;;;140.13;31.10;;;3.20;99.90;;;;;;5069384;23;20461;-92
2022/01/16 07:53:41;;;;;;;128.53;30.70;;;3.30;99.90;;;;;;5093568;23;20199;-92
2022/01/16 07:55:41;;;;;;;143.20;31.60;;;3.20;99.90;;;;;;5069332;23;20232;-92
2022/01/16 07:57:42;;;;;;;146.10;32.40;;;3.40;99.90;;;;;;5093960;23;20193;-93
2022/01/16 07:59:43;;;;;;;137.50;33.03;;;3.50;99.90;;;;;;5094191;23;20156;-94
2022/01/16 08:01:44;;;;;;;73.87;24.17;;;3.60;99.90;;;;;;5069782;23;20150;-92
2022/01/16 08:03:45;;;;;;;99.20;29.07;;;3.40;99.90;;;;;;5093977;23;20149;-94
2022/01/16 08:05:46;;;;;;;97.20;29.47;;;3.20;99.90;;;;;;5093739;23;20164;-91
2022/01/16 08:07:47;;;;;;;122.63;34.03;;;3.30;99.90;;;;;;5069313;23;20553;-92
2022/01/16 08:09:48;;;;;;;101.50;32.13;;;3.20;99.90;;;;;;5093759;23;20192;-92
2022/01/16 08:11:49;;;;;;;103.57;32.83;;;3.30;99.90;;;;;;5093088;23;20176;-93
2022/01/16 08:13:50;;;;;;;103.90;33.17;;;3.30;99.90;;;;;;5068803;23;20153;-92
2022/01/16 08:15:51;;;;;;;99.07;34.73;;;3.20;99.90;;;;;;5092836;23;20673;-92
2022/01/16 08:17:52;;;;;;;91.77;30.40;;;3.30;99.90;;;;;;5068917;23;20640;-91
2022/01/16 08:19:53;;;;;;;80.03;29.03;;;3.10;99.90;;;;;;5069228;23;20482;-93
2022/01/16 08:21:55;;;;;;;75.00;27.03;;;3.10;99.90;;;;;;5068924;23;20164;-91
2022/01/16 08:23:55;;;;;;;91.23;31.87;;;3.00;99.90;;;;;;5093421;23;20157;-91
2022/01/16 08:25:56;;;;;;;85.53;31.83;;;3.10;99.90;;;;;;5093414;23;20181;-92
2022/01/16 08:27:57;;;;;;;88.67;33.13;;;3.00;99.90;;;;;;5069347;23;20169;-93
2022/01/16 08:29:57;;;;;;;78.70;29.77;;;3.20;99.90;;;;;;5069218;23;20157;-92
2022/01/16 08:31:58;;;;;;;88.37;31.87;;;3.30;99.90;;;;;;5069066;23;20149;-93
2022/01/16 08:33:59;;;;;;;84.03;31.67;;;3.20;99.90;;;;;;5093468;23;20153;-93
2022/01/16 08:36:00;;;;;;;82.70;32.43;;;3.20;99.90;;;;;;5093397;23;20153;-93
2022/01/16 08:38:01;;;;;;;89.43;32.37;;;3.10;99.90;;;;;;5093130;23;20248;-92
2022/01/16 08:40:03;;;;;;;80.20;31.10;;;3.10;99.90;;;;;;5068999;23;20156;-92
2022/01/16 08:42:04;;;;;;;84.80;32.77;;;3.20;99.90;;;;;;5068963;23;20177;-92
2022/01/16 08:44:06;;;;;;;90.10;32.70;;;3.20;99.90;;;;;;5093114;23;20232;-92
2022/01/16 08:46:06;;;;;;;86.33;31.30;;;3.30;99.90;;;;;;5068675;23;20150;-92
2022/01/16 08:48:08;;;;;;;81.30;31.33;;;3.30;99.90;;;;;;5093453;23;20182;-94
2022/01/16 08:50:10;;;;;;;90.73;34.10;;;3.30;99.90;;;;;;5068923;23;20228;-92
2022/01/16 08:52:10;;;;;;;69.70;27.30;;;3.40;99.90;;;;;;5068473;23;20157;-92
2022/01/16 08:54:11;;;;;;;104.03;36.07;;;3.40;99.90;;;;;;5069626;23;20156;-93
2022/01/16 08:56:14;;;;;;;88.10;32.97;;;3.40;99.90;;;;;;5068945;23;20525;-91
2022/01/16 08:58:15;;;;;;;101.37;36.07;;;3.30;99.90;;;;;;5093062;23;20192;-92
2022/01/16 09:00:15;;;;;;;89.03;31.77;;;3.30;99.90;;;;;;5068728;23;20704;-93
2022/01/16 09:02:16;;;;;;;84.20;33.50;;;3.30;99.90;;;;;;5070078;23;20189;-93
2022/01/16 09:04:17;;;;;;;82.87;33.57;;;3.20;99.90;;;;;;5068608;23;20177;-92
2022/01/16 09:06:19;;;;;;;63.00;22.97;;;3.20;99.90;;;;;;5069341;23;20150;-92
2022/01/16 09:08:20;;;;;;;90.23;34.30;;;3.30;99.90;;;;;;5068855;23;20236;-92
2022/01/16 09:10:21;;;;;;;86.67;35.57;;;3.30;99.90;;;;;;5093647;23;20508;-91
2022/01/16 09:12:22;;;;;;;80.63;31.77;;;3.40;99.90;;;;;;5093283;23;20156;-92
2022/01/16 09:14:23;;;;;;;82.27;32.40;;;3.40;99.90;;;;;;5069118;23;20597;-93
2022/01/16 09:16:23;;;;;;;63.27;24.40;;;3.50;99.90;;;;;;5069110;23;20533;-93
2022/01/16 09:18:24;;;;;;;80.20;32.30;;;3.50;99.90;;;;;;5068710;23;20190;-92
2022/01/16 09:20:25;;;;;;;74.33;32.30;;;3.50;99.90;;;;;;5069243;23;20509;-93
2022/01/16 09:22:26;;;;;;;81.80;34.30;;;3.50;99.90;;;;;;5093148;23;20207;-93
2022/01/16 09:24:27;;;;;;;77.23;32.90;;;3.70;99.90;;;;;;5070328;23;20454;-92
2022/01/16 09:26:28;;;;;;;76.67;31.30;;;3.50;99.90;;;;;;5070399;23;20184;-93
2022/01/16 09:28:28;;;;;;;78.10;33.03;;;3.60;99.90;;;;;;5094935;23;20180;-93
2022/01/16 09:30:31;;;;;;;80.97;34.23;;;3.60;99.90;;;;;;5094831;23;20157;-92
2022/01/16 09:32:33;;;;;;;38.87;17.10;;;3.80;99.90;;;;;;5071837;23;20160;-92
2022/01/16 09:34:34;;;;;;;76.93;32.53;;;3.80;99.90;;;;;;5070714;23;20545;-92
2022/01/16 09:36:34;;;;;;;69.33;31.63;;;3.70;99.90;;;;;;5095764;23;20160;-92
2022/01/16 09:38:38;;;;;;;77.23;31.93;;;3.70;99.90;;;;;;5094691;23;20177;-94
2022/01/16 09:40:44;;;;;;;73.00;32.03;;;3.70;99.90;;;;;;5070199;23;20153;-92
2022/01/16 09:42:45;;;;;;;64.57;28.90;;;3.90;99.90;;;;;;5070505;23;20153;-93
2022/01/16 09:44:46;;;;;;;62.17;28.07;;;3.80;99.90;;;;;;5070204;23;20466;-92
2022/01/16 09:46:47;;;;;;;68.87;30.17;;;3.70;99.90;;;;;;5070395;23;20214;-93
2022/01/16 09:48:48;;;;;;;62.90;29.93;;;3.60;99.90;;;;;;5070632;23;20154;-92
2022/01/16 09:50:48;;;;;;;61.37;29.93;;;3.80;99.90;;;;;;5094115;23;20169;-92
2022/01/16 09:52:50;;;;;;;63.87;29.33;;;3.70;99.90;;;;;;5070142;23;20161;-93
2022/01/16 09:54:50;;;;;;;70.23;31.03;;;3.80;99.90;;;;;;5070494;23;20152;-92
2022/01/16 09:56:55;;;;;;;60.73;30.03;;;3.80;99.90;;;;;;5069974;23;20160;-92
2022/01/16 09:58:56;;;;;;;51.90;27.23;;;3.70;99.90;;;;;;5094675;23;20236;-92
2022/01/16 10:00:56;;;;;;;55.83;29.87;;;3.70;99.90;;;;;;5094685;23;20164;-92
2022/01/16 10:02:57;;;;;;;54.23;26.17;;;3.70;99.90;;;;;;5070003;23;20195;-92
2022/01/16 10:04:58;;;;;;;52.90;24.10;;;3.70;99.90;;;;;;5094346;23;20157;-92
2022/01/16 10:07:02;;;;;;;56.33;26.23;;;3.60;99.90;;;;;;5094402;23;20156;-92
2022/01/16 10:09:16;;;;;;;35.73;16.80;;;3.60;99.90;;;;;;5070055;23;20150;-93
2022/01/16 10:11:43;;;;;;;31.70;15.77;;;3.40;99.90;;;;;;5094540;23;20149;-91
2022/01/16 10:13:58;;;;;;;34.20;18.17;;;3.30;99.90;;;;;;5070241;23;20717;-91
2022/01/16 10:15:59;;;;;;;31.67;14.00;;;3.30;99.90;;;;;;5069839;23;20170;-92
2022/01/16 10:18:04;;;;;;;49.73;24.30;;;3.20;99.90;;;;;;5069769;23;20276;-92
2022/01/16 10:20:07;;;;;;;51.97;24.40;;;3.10;99.90;;;;;;5070175;23;20655;-93
2022/01/16 10:22:10;;;;;;;50.17;23.90;;;3.30;99.90;;;;;;5094176;23;20153;-92
2022/01/16 10:24:20;;;;;;;48.73;24.00;;;3.40;99.90;;;;;;5069927;23;20150;-93
2022/01/16 10:26:23;;;;;;;46.67;25.10;;;3.40;99.90;;;;;;5069564;23;20679;-92
2022/01/16 10:28:25;;;;;;;40.73;19.47;;;3.40;99.90;;;;;;5094111;23;20204;-94
2022/01/16 10:30:39;;;;;;;46.30;21.83;;;3.30;99.90;;;;;;5069877;23;20712;-92
2022/01/16 10:32:46;;;;;;;46.80;21.97;;;3.30;99.90;;;;;;5093981;23;20650;-92
2022/01/16 10:34:50;;;;;;;37.47;16.90;;;3.30;99.90;;;;;;5069225;23;20581;-92
2022/01/16 10:36:51;;;;;;;44.90;20.73;;;3.20;99.90;;;;;;5094079;23;20149;-92
2022/01/16 10:39:07;;;;;;;41.63;21.13;;;3.20;99.90;;;;;;5069872;23;20525;-92
2022/01/16 10:41:13;;;;;;;33.50;16.20;;;3.30;99.90;;;;;;5069421;23;20221;-93
2022/01/16 10:43:15;;;;;;;39.00;19.13;;;3.30;99.90;;;;;;5070334;23;20549;-92
2022/01/16 10:45:17;;;;;;;41.63;21.47;;;3.30;99.90;;;;;;5093867;23;20153;-92
2022/01/16 10:47:36;;;;;;;39.03;20.33;;;3.30;99.90;;;;;;5069419;23;20174;-93
2022/01/16 10:49:37;;;;;;;38.40;19.00;;;3.40;99.90;;;;;;5070262;23;20157;-93
2022/01/16 10:51:38;;;;;;;31.73;16.33;;;3.40;99.90;;;;;;5069332;23;20232;-91
2022/01/16 10:53:40;;;;;;;40.63;19.03;;;3.30;99.90;;;;;;5069792;23;20264;-93
2022/01/16 10:55:44;;;;;;;34.60;16.40;;;3.30;99.90;;;;;;5093915;23;20215;-94
2022/01/16 10:57:46;;;;;;;45.57;22.17;;;3.40;99.90;;;;;;5093790;23;20189;-91
2022/01/16 10:59:47;;;;;;;40.53;20.77;;;3.50;99.90;;;;;;5069986;23;20179;-92
2022/01/16 11:02:07;;;;;;;37.73;17.17;;;3.50;99.90;;;;;;5069777;23;20237;-92
2022/01/16 11:04:08;;;;;;;51.77;22.77;;;3.50;99.90;;;;;;5069521;23;20184;-92